Time;durP1;ratioP1;P1;durP2;ratioP2;P2;SDS_P1;SDS_P2;PMS_P1;PMS_P2;Temp;Humidity;BMP_temperature;BMP_pressure;BME280_temperature;BME280_humidity;BME280_pressure;Samples;Min_cycle;Max_cycle;Signal;HPM_P1;HPM_P2
2022/01/30 00:01:15;;;;;;;7.07;3.47;;;;;;;1.87;77.48;98745.66;4516542;31;20115;-71
2022/01/30 00:03:42;;;;;;;12.25;3.10;;;;;;;1.79;78.66;98738.34;4516832;31;20096;-71
2022/01/30 00:06:10;;;;;;;8.38;3.22;;;;;;;1.77;79.91;98740.16;4516637;31;20550;-71
2022/01/30 00:08:37;;;;;;;10.65;3.37;;;;;;;1.74;80.17;98737.72;4516745;31;20099;-71
2022/01/30 00:11:13;;;;;;;7.85;3.33;;;;;;;1.71;81.03;98736.16;4515232;31;20160;-71
2022/01/30 00:13:40;;;;;;;9.52;3.08;;;;;;;1.77;81.89;98735.84;4516576;31;20135;-71
2022/01/30 00:16:10;;;;;;;8.02;3.12;;;;;;;1.79;82.19;98730.59;4489254;31;20088;-71
2022/01/30 00:18:59;;;;;;;10.43;3.15;;;;;;;1.73;83.18;98728.34;4516855;31;20170;-71
2022/01/30 00:24:08;;;;;;;7.12;3.40;;;;;;;1.53;85.48;98716.47;4516499;31;20594;-71
2022/01/30 00:26:39;;;;;;;11.40;2.75;;;;;;;1.51;85.19;98705.41;4516536;31;20103;-71
2022/01/30 00:29:06;;;;;;;6.90;2.97;;;;;;;1.58;84.84;98705.00;4516291;31;20124;-71
2022/01/30 00:31:36;;;;;;;11.65;3.60;;;;;;;1.49;85.62;98697.75;4516306;31;20087;-71
2022/01/30 00:34:23;;;;;;;10.77;3.60;;;;;;;1.48;85.92;98688.31;4493596;31;20617;-71
2022/01/30 00:36:51;;;;;;;8.25;3.40;;;;;;;1.52;86.00;98673.53;4500491;31;20118;-71
2022/01/30 00:39:19;;;;;;;6.80;3.42;;;;;;;1.52;86.19;98665.78;4500381;31;20087;-71
2022/01/30 00:41:46;;;;;;;10.80;3.45;;;;;;;1.37;87.16;98655.34;4500314;31;20792;-71
2022/01/30 00:44:15;;;;;;;10.45;3.65;;;;;;;1.39;86.48;98632.03;4500397;31;20585;-71
2022/01/30 00:46:44;;;;;;;8.30;3.08;;;;;;;1.45;85.68;98649.75;4500231;31;20560;-71
2022/01/30 00:49:12;;;;;;;10.27;3.40;;;;;;;1.41;86.03;98641.38;4500604;31;20092;-71
2022/01/30 00:51:39;;;;;;;8.18;3.70;;;;;;;1.28;86.48;98655.00;4500227;31;20084;-71
2022/01/30 00:54:06;;;;;;;12.77;3.80;;;;;;;1.24;86.36;98638.84;4500260;31;20493;-71
2022/01/30 00:56:34;;;;;;;11.45;3.70;;;;;;;1.20;86.63;98635.59;4500515;31;20123;-71
2022/01/30 00:59:01;;;;;;;8.50;3.50;;;;;;;1.24;86.62;98636.25;4499990;31;20080;-71
2022/01/30 01:01:28;;;;;;;9.45;4.40;;;;;;;1.21;86.61;98628.69;4500000;31;20096;-71
2022/01/30 01:03:55;;;;;;;12.30;3.70;;;;;;;1.17;87.12;98638.34;4500264;31;20115;-71
2022/01/30 01:06:22;;;;;;;10.35;3.72;;;;;;;1.15;87.21;98622.13;4500116;31;20096;-71
2022/01/30 01:08:55;;;;;;;11.85;3.90;;;;;;;1.16;86.83;98633.25;4500163;31;20136;-71
2022/01/30 01:11:53;;;;;;;14.02;3.55;;;;;;;1.23;86.58;98622.53;4499974;31;20529;-71
2022/01/30 01:20:56;;;;;;;8.82;3.78;;;;;;;1.21;87.18;98626.09;4488203;31;20104;-71
2022/01/30 01:25:22;;;;;;;7.32;3.25;;;;;;;1.31;86.48;98613.56;4502049;31;20740;-71
2022/01/30 01:27:49;;;;;;;7.12;3.72;;;;;;;1.44;85.15;98608.53;4501880;31;20088;-71
2022/01/30 01:30:16;;;;;;;15.50;4.32;;;;;;;1.27;85.73;98601.72;4501928;31;20489;-71
2022/01/30 01:32:44;;;;;;;11.77;3.40;;;;;;;1.35;85.67;98594.41;4501829;31;20096;-71
2022/01/30 01:35:11;;;;;;;7.40;3.55;;;;;;;1.28;86.16;98585.34;4501705;31;20091;-71
2022/01/30 01:37:39;;;;;;;10.77;3.40;;;;;;;1.36;85.51;98575.41;4502154;31;20084;-71
2022/01/30 01:40:06;;;;;;;6.47;3.47;;;;;;;1.34;85.52;98564.34;4501882;31;20100;-71
2022/01/30 01:42:35;;;;;;;7.53;3.65;;;;;;;1.27;85.64;98563.00;4501814;31;20127;-71
2022/01/30 01:45:03;;;;;;;6.90;3.05;;;;;;;1.20;85.54;98553.03;4501927;31;20095;-71
2022/01/30 01:47:33;;;;;;;10.85;3.40;;;;;;;1.17;85.45;98550.63;4501932;31;20115;-71
2022/01/30 01:50:01;;;;;;;16.85;4.25;;;;;;;1.31;84.96;98546.47;4501952;31;20092;-71
2022/01/30 01:52:28;;;;;;;9.20;3.40;;;;;;;1.27;84.28;98540.63;4501616;31;20144;-71
2022/01/30 01:54:58;;;;;;;9.43;3.75;;;;;;;1.28;83.94;98539.72;4487874;31;20099;-71
2022/01/30 01:57:27;;;;;;;10.27;2.97;;;;;;;1.33;83.56;98521.38;4501940;31;20155;-71
2022/01/30 01:59:56;;;;;;;7.32;2.97;;;;;;;1.15;83.83;98516.34;4501842;31;20178;-71
2022/01/30 02:02:27;;;;;;;8.60;3.28;;;;;;;1.16;83.58;98517.97;4501708;31;20084;-71
2022/01/30 02:04:58;;;;;;;9.98;3.00;;;;;;;1.33;83.68;98519.66;4501671;31;20603;-71
2022/01/30 02:09:56;;;;;;;8.40;2.80;;;;;;;1.45;83.16;98507.78;4501900;31;20465;-71
2022/01/30 02:12:31;;;;;;;9.30;2.97;;;;;;;1.41;83.19;98514.87;4501596;31;20106;-71
2022/01/30 02:26:19;;;;;;;5.47;2.70;;;;;;;1.63;84.14;98481.88;4468091;32;20096;-71
2022/01/30 02:28:46;;;;;;;5.55;2.37;;;;;;;1.77;83.37;98475.00;4467820;32;20112;-71
2022/01/30 02:31:19;;;;;;;4.47;2.53;;;;;;;1.75;83.69;98474.22;4467741;32;20168;-71
2022/01/30 02:33:47;;;;;;;6.03;2.67;;;;;;;1.77;84.02;98471.56;4466947;32;20121;-71
2022/01/30 02:36:14;;;;;;;7.47;2.75;;;;;;;1.74;84.21;98474.31;4467508;32;20113;-71
2022/01/30 02:38:41;;;;;;;5.45;2.47;;;;;;;1.74;84.67;98476.91;4467626;32;20124;-71
2022/01/30 02:41:08;;;;;;;4.93;2.47;;;;;;;1.76;84.97;98469.91;4467594;32;20569;-71
2022/01/30 02:43:43;;;;;;;4.97;2.67;;;;;;;1.91;84.84;98463.84;4467874;32;20184;-71
2022/01/30 02:46:34;;;;;;;;;;;;;;;1.92;85.30;98456.91;4468161;32;20096;-71
2022/01/30 02:49:11;;;;;;;3.70;2.20;;;;;;;1.99;85.29;98449.66;4467547;32;19984;-71
2022/01/30 02:51:47;;;;;;;4.47;2.15;;;;;;;2.18;85.44;98445.06;4467440;32;20116;-71
2022/01/30 02:54:14;;;;;;;5.25;2.78;;;;;;;2.30;85.39;98433.13;4476206;31;20099;-71
2022/01/30 02:56:42;;;;;;;8.20;2.35;;;;;;;2.30;85.70;98426.22;4501612;31;20108;-71
2022/01/30 02:59:11;;;;;;;3.65;2.08;;;;;;;2.45;86.09;98423.59;4501274;31;20163;-71
2022/01/30 03:01:38;;;;;;;3.95;2.05;;;;;;;2.49;86.45;98414.75;4501077;31;20107;-71
2022/01/30 03:04:07;;;;;;;4.47;1.37;;;;;;;2.58;87.57;98421.09;4501216;31;20569;-71
2022/01/30 03:06:35;;;;;;;4.20;2.30;;;;;;;2.66;88.14;98401.59;4501270;31;20405;-71
2022/01/30 03:09:04;;;;;;;3.40;1.95;;;;;;;2.79;87.90;98398.25;4501355;31;20104;-71
2022/01/30 03:11:32;;;;;;;5.05;1.83;;;;;;;2.81;88.01;98397.19;4501112;31;20744;-71
2022/01/30 03:13:59;;;;;;;5.37;2.00;;;;;;;2.91;87.82;98407.81;4501672;31;20583;-71
2022/01/30 03:16:26;;;;;;;2.62;1.40;;;;;;;2.94;87.82;98415.37;4501297;31;20126;-71
2022/01/30 03:18:54;;;;;;;4.90;2.05;;;;;;;2.99;87.62;98415.91;4501380;31;20156;-71
2022/01/30 03:21:41;;;;;;;7.90;2.17;;;;;;;3.01;87.25;98408.87;4501066;31;20122;-71
2022/01/30 03:24:10;;;;;;;7.62;1.67;;;;;;;2.90;87.42;98393.19;4501116;31;20157;-71
2022/01/30 03:26:39;;;;;;;3.47;2.10;;;;;;;2.92;87.47;98393.94;4501407;31;20092;-71
2022/01/30 03:29:08;;;;;;;3.08;1.83;;;;;;;2.89;87.54;98388.94;4501305;31;20088;-71
2022/01/30 03:31:39;;;;;;;3.78;2.12;;;;;;;2.81;87.87;98386.03;4501209;31;20171;-71
2022/01/30 03:34:08;;;;;;;7.55;2.22;;;;;;;2.80;88.02;98379.19;4510107;31;20167;-71
2022/01/30 03:36:36;;;;;;;4.72;2.12;;;;;;;2.79;88.17;98378.37;4517107;31;20099;-71
2022/01/30 03:39:04;;;;;;;6.75;2.20;;;;;;;2.76;88.49;98373.38;4516917;31;20156;-71
2022/01/30 03:41:32;;;;;;;8.48;2.25;;;;;;;2.75;88.65;98366.53;4516862;31;20106;-71
2022/01/30 03:44:02;;;;;;;4.18;1.67;;;;;;;2.81;88.90;98360.97;4517223;31;20083;-71
2022/01/30 03:46:29;;;;;;;4.30;2.28;;;;;;;2.87;88.76;98354.59;4516871;31;20107;-71
2022/01/30 03:49:17;;;;;;;4.80;2.40;;;;;;;2.82;88.92;98354.06;4516852;31;20196;-71
2022/01/30 03:51:44;;;;;;;4.50;1.87;;;;;;;2.83;89.08;98364.31;4517030;31;20092;-71
2022/01/30 03:54:12;;;;;;;3.70;2.08;;;;;;;2.91;88.77;98376.75;4516950;31;20100;-71
2022/01/30 03:56:40;;;;;;;3.12;1.80;;;;;;;2.90;88.85;98364.75;4516915;31;20147;-71
2022/01/30 03:59:08;;;;;;;5.47;2.35;;;;;;;2.88;88.94;98366.59;4516700;31;20091;-71
2022/01/30 04:01:35;;;;;;;4.78;2.25;;;;;;;2.91;89.04;98357.81;4516520;31;20180;-71
2022/01/30 04:04:03;;;;;;;7.30;2.62;;;;;;;2.85;89.32;98356.47;4516848;31;20118;-71
2022/01/30 04:06:30;;;;;;;4.55;1.90;;;;;;;2.87;89.50;98344.25;4517047;31;20099;-71
2022/01/30 04:09:00;;;;;;;3.67;2.00;;;;;;;2.90;89.51;98359.56;4516886;31;20471;-71
2022/01/30 04:11:29;;;;;;;4.43;2.08;;;;;;;2.80;89.69;98346.41;4516775;31;20118;-71
2022/01/30 04:13:57;;;;;;;4.85;2.10;;;;;;;2.84;89.88;98354.78;4516602;31;20104;-71
2022/01/30 04:16:25;;;;;;;3.22;1.62;;;;;;;2.78;90.03;98344.84;4516295;31;20453;-71
2022/01/30 04:18:53;;;;;;;3.78;1.98;;;;;;;2.82;90.16;98335.97;4516949;31;20138;-71
2022/01/30 04:21:20;;;;;;;2.42;1.33;;;;;;;2.87;90.21;98339.06;4516532;31;20091;-71
2022/01/30 04:23:48;;;;;;;5.12;2.00;;;;;;;2.96;90.29;98333.28;4516728;31;20122;-71
2022/01/30 04:26:16;;;;;;;2.97;1.65;;;;;;;3.06;90.37;98335.28;4516764;31;20489;-71
2022/01/30 04:28:48;;;;;;;2.42;1.62;;;;;;;3.19;90.12;98343.91;4516704;31;20083;-71
2022/01/30 04:31:16;;;;;;;3.70;1.73;;;;;;;3.29;89.84;98339.78;4502236;31;20431;-71
2022/01/30 04:33:45;;;;;;;2.87;1.62;;;;;;;3.34;89.59;98342.88;4510025;31;20114;-71
2022/01/30 04:36:18;;;;;;;4.97;2.30;;;;;;;3.33;89.62;98335.22;4500673;31;20646;-71
2022/01/30 04:58:02;;;;;;;5.25;2.28;;;;;;;3.04;91.06;98343.12;4501794;31;20083;-71
2022/01/30 05:05:57;;;;;;;5.32;2.40;;;;;;;2.87;92.35;98346.84;4501977;31;20804;-71
2022/01/30 05:08:25;;;;;;;4.12;2.35;;;;;;;2.78;92.65;98340.47;4502095;31;20120;-71
2022/01/30 05:10:53;;;;;;;3.35;2.17;;;;;;;2.80;92.79;98340.37;4502237;31;20126;-71
2022/01/30 05:13:25;;;;;;;4.07;2.08;;;;;;;2.82;92.93;98343.72;4502336;31;20122;-71
2022/01/30 05:15:53;;;;;;;4.70;2.05;;;;;;;2.77;93.22;98344.03;4500565;31;20130;-71
2022/01/30 05:18:28;;;;;;;3.47;1.83;;;;;;;2.84;93.77;98349.63;4502266;31;20464;-71
2022/01/30 05:20:57;;;;;;;3.62;2.10;;;;;;;2.94;93.48;98345.50;4502168;31;20491;-71
2022/01/30 05:23:24;;;;;;;4.28;1.52;;;;;;;2.99;93.62;98350.38;4502215;31;20110;-71
2022/01/30 05:25:53;;;;;;;3.40;1.77;;;;;;;3.05;93.67;98351.75;4502172;31;20103;-71
2022/01/30 05:28:24;;;;;;;3.22;2.10;;;;;;;3.08;93.46;98351.56;4502224;31;20096;-71
2022/01/30 05:30:54;;;;;;;3.47;1.80;;;;;;;3.05;93.50;98339.63;4502084;31;20140;-71
2022/01/30 05:33:22;;;;;;;4.68;2.45;;;;;;;2.99;93.78;98343.44;4505899;31;20096;-71
2022/01/30 05:35:49;;;;;;;4.37;1.90;;;;;;;2.93;94.36;98324.91;4517971;31;20490;-71
2022/01/30 05:38:18;;;;;;;4.97;2.00;;;;;;;2.97;94.32;98337.56;4518168;31;20091;-71
2022/01/30 05:40:47;;;;;;;4.85;2.30;;;;;;;2.95;94.74;98328.22;4517901;31;20143;-71
2022/01/30 05:43:15;;;;;;;5.03;2.20;;;;;;;2.91;94.60;98330.19;4518033;31;20100;-71
2022/01/30 05:45:46;;;;;;;5.30;2.60;;;;;;;2.88;94.57;98339.87;4517785;31;20091;-71
2022/01/30 05:48:17;;;;;;;4.80;2.40;;;;;;;2.82;95.26;98335.97;4518160;31;20191;-71
2022/01/30 05:50:46;;;;;;;3.12;2.20;;;;;;;2.83;95.13;98328.09;4517929;31;20471;-71
2022/01/30 05:53:14;;;;;;;3.92;1.90;;;;;;;2.77;95.37;98341.44;4518120;31;20158;-71
2022/01/30 05:55:42;;;;;;;5.18;2.30;;;;;;;2.80;95.40;98345.56;4517766;31;20108;-71
2022/01/30 05:58:09;;;;;;;3.45;2.10;;;;;;;2.75;95.55;98345.03;4517898;31;20538;-71
2022/01/30 06:00:37;;;;;;;3.15;1.83;;;;;;;2.67;95.82;98338.59;4517977;31;20175;-71
2022/01/30 06:03:04;;;;;;;5.32;2.40;;;;;;;2.66;96.01;98336.94;4517935;31;20111;-71
2022/01/30 06:05:32;;;;;;;2.83;1.87;;;;;;;2.59;96.23;98335.69;4517473;31;20103;-71
2022/01/30 06:08:09;;;;;;;3.50;1.87;;;;;;;2.53;96.99;98351.56;4517637;31;20095;-71
2022/01/30 06:10:36;;;;;;;5.05;1.90;;;;;;;2.54;97.10;98342.06;4517424;31;20088;-71
2022/01/30 06:13:03;;;;;;;5.10;2.00;;;;;;;2.52;97.20;98336.97;4518055;31;20107;-71
2022/01/30 06:15:32;;;;;;;3.30;2.00;;;;;;;2.47;97.57;98333.88;4517445;31;20118;-71
2022/01/30 06:18:00;;;;;;;3.42;1.90;;;;;;;2.42;97.83;98341.06;4517979;31;20091;-71
2022/01/30 06:20:30;;;;;;;3.12;1.80;;;;;;;2.47;98.01;98342.44;4517507;31;20096;-71
2022/01/30 06:23:01;;;;;;;3.33;1.87;;;;;;;2.46;98.24;98340.78;4517830;31;20130;-71
2022/01/30 06:25:43;;;;;;;2.90;1.42;;;;;;;2.59;97.51;98346.03;4517788;31;20417;-71
2022/01/30 06:28:18;;;;;;;4.43;1.58;;;;;;;2.62;97.43;98357.91;4517807;31;20143;-71
2022/01/30 06:30:49;;;;;;;3.83;1.85;;;;;;;2.68;96.70;98357.53;4517391;31;20092;-71
2022/01/30 06:33:28;;;;;;;4.65;1.95;;;;;;;2.82;95.81;98341.13;4513057;31;20076;-71
2022/01/30 06:36:05;;;;;;;3.72;1.83;;;;;;;2.88;95.25;98338.16;4501520;31;20119;-71
2022/01/30 06:38:33;;;;;;;3.50;1.80;;;;;;;2.99;94.42;98337.44;4501906;31;20429;-71
2022/01/30 06:41:00;;;;;;;3.95;2.30;;;;;;;3.10;93.69;98344.50;4501651;31;20121;-71
2022/01/30 06:43:30;;;;;;;2.97;1.60;;;;;;;3.22;93.17;98359.22;4501841;31;20096;-71
2022/01/30 06:46:03;;;;;;;3.23;1.70;;;;;;;3.32;92.42;98365.47;4501701;31;20464;-71
2022/01/30 06:48:33;;;;;;;2.80;1.95;;;;;;;3.49;91.61;98361.75;4501817;31;20125;-71
2022/01/30 06:51:07;;;;;;;4.43;1.48;;;;;;;3.66;90.81;98373.56;4501659;31;20418;-71
2022/01/30 06:53:36;;;;;;;2.92;1.60;;;;;;;3.70;90.37;98372.44;4501661;31;20509;-71
2022/01/30 06:56:11;;;;;;;1.48;0.98;;;;;;;3.77;89.91;98387.56;4501569;31;20088;-71
2022/01/30 06:58:44;;;;;;;0.98;0.85;;;;;;;3.93;88.96;98385.59;4501693;31;20096;-71
2022/01/30 07:01:20;;;;;;;0.85;0.40;;;;;;;4.13;86.46;98368.66;4501462;31;20447;-71
2022/01/30 07:03:51;;;;;;;0.17;0.17;;;;;;;4.40;82.53;98332.19;4501696;31;20099;-71
2022/01/30 07:06:19;;;;;;;0.60;0.20;;;;;;;4.54;81.40;98332.97;4501466;31;20108;-71
2022/01/30 07:08:46;;;;;;;1.00;0.25;;;;;;;4.66;79.17;98329.50;4501442;31;20088;-71
2022/01/30 07:11:15;;;;;;;0.10;0.10;;;;;;;4.84;76.48;98329.13;4501302;31;20151;-71
2022/01/30 07:13:43;;;;;;;2.58;0.30;;;;;;;4.89;75.84;98316.63;4501260;31;20092;-71
2022/01/30 07:16:13;;;;;;;2.78;0.17;;;;;;;4.87;76.28;98328.91;4501175;31;20419;-71
2022/01/30 07:18:40;;;;;;;0.17;0.10;;;;;;;4.85;76.80;98315.22;4501245;31;20092;-71
2022/01/30 07:21:09;;;;;;;1.12;0.32;;;;;;;4.95;75.88;98332.59;4501024;31;20223;-71
2022/01/30 07:23:37;;;;;;;2.22;0.40;;;;;;;5.04;75.66;98340.63;4501230;31;20719;-71
2022/01/30 07:26:04;;;;;;;1.12;0.30;;;;;;;5.09;75.23;98321.19;4501239;31;20794;-71
2022/01/30 07:28:32;;;;;;;2.30;0.20;;;;;;;5.14;74.93;98352.81;4501236;31;20104;-71
2022/01/30 07:30:59;;;;;;;5.65;0.22;;;;;;;5.31;72.91;98325.63;4501136;31;20134;-71
2022/01/30 07:33:26;;;;;;;0.80;0.20;;;;;;;5.40;72.00;98337.06;4499853;31;20449;-71
2022/01/30 07:35:56;;;;;;;1.85;0.30;;;;;;;5.57;69.23;98347.97;4500842;31;20614;-71
2022/01/30 07:38:24;;;;;;;1.35;0.40;;;;;;;5.64;69.15;98343.97;4501088;31;20468;-71
2022/01/30 07:40:51;;;;;;;1.60;0.40;;;;;;;5.73;68.06;98332.87;4500993;31;20079;-71
2022/01/30 07:43:19;;;;;;;0.15;0.10;;;;;;;5.76;67.65;98309.25;4501054;31;20106;-71
2022/01/30 07:45:46;;;;;;;1.17;0.40;;;;;;;5.80;66.96;98297.66;4501249;31;20104;-71
2022/01/30 07:48:15;;;;;;;3.03;0.65;;;;;;;5.94;64.62;98300.97;4501335;31;20578;-71
2022/01/30 07:50:43;;;;;;;2.47;0.30;;;;;;;6.03;63.35;98321.09;4501078;31;20166;-71
2022/01/30 07:53:10;;;;;;;3.92;0.40;;;;;;;6.17;61.23;98335.62;4501086;31;20125;-72
2022/01/30 07:55:37;;;;;;;1.70;0.88;;;;;;;6.20;61.35;98320.59;4501072;31;20123;-71
2022/01/30 07:58:06;;;;;;;2.22;0.45;;;;;;;6.33;59.85;98309.25;4500741;31;20441;-71
2022/01/30 08:00:33;;;;;;;2.92;0.45;;;;;;;6.37;58.98;98332.28;4501015;31;20088;-71
2022/01/30 08:03:00;;;;;;;2.37;0.52;;;;;;;6.41;58.55;98361.47;4500928;31;20116;-71
2022/01/30 08:05:27;;;;;;;1.27;0.30;;;;;;;6.45;58.00;98317.81;4500878;31;20153;-71
2022/01/30 08:07:55;;;;;;;6.18;0.40;;;;;;;6.48;58.99;98347.03;4500915;31;20441;-71
2022/01/30 08:10:22;;;;;;;4.35;0.62;;;;;;;6.53;60.31;98357.09;4500907;31;20378;-72
2022/01/30 08:12:49;;;;;;;5.37;0.52;;;;;;;6.41;64.21;98327.66;4501239;31;20449;-71
2022/01/30 08:15:16;;;;;;;0.73;0.37;;;;;;;6.24;67.26;98414.84;4500886;31;20112;-72
2022/01/30 08:17:44;;;;;;;4.78;0.85;;;;;;;6.16;69.45;98376.41;4500838;31;20084;-72
2022/01/30 08:20:11;;;;;;;0.37;0.37;;;;;;;6.15;70.26;98368.72;4500915;31;20084;-72
2022/01/30 08:22:45;;;;;;;3.30;0.75;;;;;;;6.12;71.54;98381.97;4500658;31;20163;-72
2022/01/30 08:25:12;;;;;;;1.85;0.60;;;;;;;6.15;73.71;98392.94;4500816;31;20091;-72
2022/01/30 08:27:39;;;;;;;4.72;0.75;;;;;;;5.91;75.45;98423.41;4500751;31;20118;-72
2022/01/30 08:30:07;;;;;;;3.67;0.68;;;;;;;5.76;76.27;98389.00;4500589;31;20171;-72
2022/01/30 08:32:39;;;;;;;3.10;0.57;;;;;;;5.57;78.58;98382.59;4499280;31;20196;-72
2022/01/30 08:35:08;;;;;;;5.68;1.15;;;;;;;5.60;78.35;98405.75;4515892;31;20103;-72
2022/01/30 08:37:36;;;;;;;1.87;0.43;;;;;;;5.64;77.48;98398.53;4516437;31;20126;-72
2022/01/30 08:40:04;;;;;;;2.65;0.60;;;;;;;5.72;77.32;98408.34;4516448;31;20114;-72
2022/01/30 08:42:32;;;;;;;3.78;0.43;;;;;;;5.75;76.43;98432.34;4516331;31;20088;-72
2022/01/30 08:45:00;;;;;;;4.65;0.45;;;;;;;5.87;75.81;98422.78;4516723;31;20099;-72
2022/01/30 08:47:27;;;;;;;1.87;0.50;;;;;;;6.00;74.78;98427.94;4516172;31;20483;-72
2022/01/30 08:49:54;;;;;;;2.15;0.40;;;;;;;6.13;74.20;98417.41;4516435;31;20184;-72
2022/01/30 08:52:21;;;;;;;1.70;0.60;;;;;;;6.24;71.34;98440.00;4516347;31;20095;-72
2022/01/30 08:54:49;;;;;;;2.08;0.70;;;;;;;6.26;69.67;98446.75;4516665;31;20092;-72
2022/01/30 08:57:17;;;;;;;0.37;0.20;;;;;;;6.37;67.48;98393.87;4516204;31;20118;-72
2022/01/30 08:59:45;;;;;;;0.70;0.37;;;;;;;6.41;64.87;98436.94;4516065;31;20096;-72
2022/01/30 09:02:13;;;;;;;1.80;0.68;;;;;;;6.44;63.08;98402.88;4516106;31;20113;-72
2022/01/30 09:04:40;;;;;;;4.20;0.70;;;;;;;6.50;62.22;98420.59;4516020;31;20126;-72
2022/01/30 09:07:07;;;;;;;2.17;0.65;;;;;;;6.50;61.67;98415.41;4516026;31;20100;-71
2022/01/30 09:09:34;;;;;;;3.08;0.73;;;;;;;6.61;62.90;98434.56;4515838;31;20167;-72
2022/01/30 09:12:03;;;;;;;1.02;0.50;;;;;;;6.66;63.29;98435.00;4515932;31;20396;-72
2022/01/30 09:14:30;;;;;;;1.70;0.45;;;;;;;6.56;61.42;98453.13;4515773;31;20087;-72
2022/01/30 09:16:57;;;;;;;1.25;0.45;;;;;;;6.54;61.53;98461.06;4516003;31;20092;-72
2022/01/30 09:19:42;;;;;;;1.62;0.35;;;;;;;6.59;61.32;98457.28;4515868;31;20143;-72
2022/01/30 09:22:12;;;;;;;3.40;0.50;;;;;;;6.66;60.19;98445.41;4515815;31;20084;-72
2022/01/30 09:24:40;;;;;;;1.87;0.45;;;;;;;6.70;60.02;98449.44;4515747;31;20095;-72
2022/01/30 09:27:08;;;;;;;1.30;0.50;;;;;;;6.81;59.94;98444.22;4516158;31;20095;-72
2022/01/30 09:29:37;;;;;;;0.62;0.50;;;;;;;6.87;59.35;98454.16;4501383;31;20099;-72
2022/01/30 09:32:06;;;;;;;3.37;0.60;;;;;;;7.04;59.54;98445.00;4515518;31;20103;-72
2022/01/30 09:34:34;;;;;;;3.03;0.82;;;;;;;7.03;59.69;98453.75;4515369;31;20103;-72
2022/01/30 09:37:01;;;;;;;2.35;0.35;;;;;;;7.23;58.73;98444.34;4515607;31;20080;-72
2022/01/30 09:39:28;;;;;;;4.18;0.80;;;;;;;7.51;58.10;98447.31;4515696;31;20096;-72
2022/01/30 09:41:56;;;;;;;3.33;0.90;;;;;;;7.84;58.17;98452.47;4515541;31;20083;-72
2022/01/30 09:44:23;;;;;;;3.90;0.60;;;;;;;7.79;56.43;98455.47;4503079;31;20743;-72
2022/01/30 09:46:51;;;;;;;1.73;0.43;;;;;;;7.43;56.77;98486.19;4517817;31;20100;-72
2022/01/30 09:49:23;;;;;;;2.80;0.40;;;;;;;7.23;56.92;98444.34;4517690;31;20088;-72
2022/01/30 09:51:52;;;;;;;2.95;0.60;;;;;;;6.92;59.04;98511.91;4517896;31;20095;-72
2022/01/30 09:54:20;;;;;;;2.28;0.35;;;;;;;6.47;61.77;98433.84;4517678;31;20087;-72
2022/01/30 09:56:48;;;;;;;2.08;0.77;;;;;;;6.25;64.64;98437.28;4517915;31;20137;-72
2022/01/30 09:59:15;;;;;;;1.87;0.73;;;;;;;6.42;64.76;98437.75;4503176;31;20138;-72
2022/01/30 10:01:42;;;;;;;3.25;0.70;;;;;;;6.48;64.51;98468.50;4517594;31;20092;-72
2022/01/30 10:04:10;;;;;;;1.87;0.40;;;;;;;6.54;65.08;98455.00;4517435;31;20200;-72
2022/01/30 10:07:01;;;;;;;0.88;0.35;;;;;;;6.64;62.27;98462.94;4517683;31;20147;-72
2022/01/30 10:09:33;;;;;;;2.47;0.35;;;;;;;6.84;62.23;98470.00;4517547;31;20140;-72
2022/01/30 10:12:14;;;;;;;0.75;0.13;;;;;;;6.57;62.55;98492.06;4517648;31;20717;-72
2022/01/30 10:14:47;;;;;;;2.22;0.50;;;;;;;6.37;63.66;98485.78;4517641;31;20114;-72
2022/01/30 10:17:34;;;;;;;4.25;0.43;;;;;;;6.10;64.05;98478.31;4517410;31;20491;-72
2022/01/30 10:20:25;;;;;;;2.10;0.40;;;;;;;5.67;63.76;98544.66;4517502;31;20128;-72
2022/01/30 10:22:54;;;;;;;1.25;0.40;;;;;;;5.19;71.57;98549.00;4517557;31;20190;-72
2022/01/30 10:25:32;;;;;;;0.43;0.28;;;;;;;4.35;78.64;98544.34;4517651;31;20110;-71
2022/01/30 10:28:06;;;;;;;3.50;0.30;;;;;;;3.59;85.93;98519.12;4517618;31;20088;-71
2022/01/30 10:30:53;;;;;;;1.98;0.10;;;;;;;3.37;83.33;98498.03;4517415;31;20480;-71
2022/01/30 10:33:22;;;;;;;4.43;0.60;;;;;;;3.50;81.28;98484.31;4513770;31;20536;-71
2022/01/30 10:35:56;;;;;;;1.37;0.40;;;;;;;3.68;77.63;98480.53;4501768;31;20430;-71
2022/01/30 10:38:26;;;;;;;0.82;0.52;;;;;;;3.85;76.53;98499.31;4501692;31;20441;-71
2022/01/30 10:41:00;;;;;;;1.90;0.40;;;;;;;3.96;75.64;98512.38;4501184;31;20091;-71
2022/01/30 10:44:03;;;;;;;1.37;0.55;;;;;;;4.05;75.27;98498.78;4501742;31;20080;-71
2022/01/30 10:46:42;;;;;;;2.78;0.77;;;;;;;4.25;74.59;98494.88;4501478;31;20105;-71
2022/01/30 10:49:12;;;;;;;3.83;0.57;;;;;;;4.47;73.25;98487.38;4501339;31;20084;-71
2022/01/30 10:51:41;;;;;;;2.08;0.77;;;;;;;4.60;71.57;98516.72;4501696;31;20126;-71
2022/01/30 10:54:10;;;;;;;16.83;1.25;;;;;;;4.64;70.81;98505.22;4500779;31;20088;-71
2022/01/30 10:56:39;;;;;;;1.58;0.32;;;;;;;4.58;70.00;98503.03;4501215;31;20139;-71
2022/01/30 10:59:09;;;;;;;1.25;0.52;;;;;;;4.86;68.10;98482.94;4501515;31;20435;-71
2022/01/30 11:01:44;;;;;;;0.82;0.30;;;;;;;5.12;65.27;98487.13;4501403;31;20115;-71
2022/01/30 11:04:28;;;;;;;0.60;0.30;;;;;;;5.60;62.91;98494.09;4501561;31;20106;-71
2022/01/30 11:06:59;;;;;;;1.45;0.45;;;;;;;6.13;59.36;98501.50;4501555;31;20076;-71
2022/01/30 11:09:32;;;;;;;2.47;0.60;;;;;;;6.75;58.48;98492.41;4500055;31;20464;-71
2022/01/30 11:12:09;;;;;;;3.08;0.45;;;;;;;7.20;57.36;98491.47;4501164;31;20071;-71
2022/01/30 11:14:41;;;;;;;2.67;0.60;;;;;;;7.33;56.65;98470.50;4501283;31;20417;-71
2022/01/30 11:17:15;;;;;;;4.47;0.47;;;;;;;7.16;54.30;98457.97;4500981;31;20510;-71
2022/01/30 11:19:44;;;;;;;4.70;1.12;;;;;;;7.01;53.11;98458.28;4500031;31;20473;-71
2022/01/30 11:22:13;;;;;;;1.60;0.45;;;;;;;6.86;53.98;98457.72;4499689;31;20080;-71
2022/01/30 11:25:16;;;;;;;8.05;1.00;;;;;;;6.97;53.05;98451.66;4501277;31;20089;-71
2022/01/30 11:27:46;;;;;;;6.12;0.90;;;;;;;6.83;49.75;98454.50;4451515;32;20128;-71
2022/01/30 11:30:28;;;;;;;2.92;0.50;;;;;;;6.80;50.38;98454.75;4451418;32;20154;-71
2022/01/30 11:32:55;;;;;;;6.62;0.85;;;;;;;6.84;51.54;98459.59;4451443;32;20128;-71
2022/01/30 11:35:22;;;;;;;1.65;0.57;;;;;;;6.66;53.94;98471.44;4438696;32;20169;-71
2022/01/30 11:37:50;;;;;;;6.82;0.70;;;;;;;6.57;54.46;98447.81;4451668;32;20097;-71
2022/01/30 11:40:19;;;;;;;4.15;1.15;;;;;;;6.44;53.97;98456.69;4438756;32;20129;-71
2022/01/30 11:42:49;;;;;;;3.17;0.85;;;;;;;6.21;53.91;98493.91;4438776;32;20162;-71
2022/01/30 11:45:31;;;;;;;3.87;1.05;;;;;;;6.13;54.30;98459.03;4451445;32;20146;-72
2022/01/30 11:48:12;;;;;;;3.08;0.55;;;;;;;6.14;54.92;98471.91;4451348;32;20356;-72
2022/01/30 11:50:40;;;;;;;4.30;0.60;;;;;;;6.35;52.48;98466.03;4451538;32;20162;-71
2022/01/30 11:53:08;;;;;;;2.70;0.88;;;;;;;6.62;52.70;98480.47;4451519;32;20113;-72
2022/01/30 11:55:56;;;;;;;3.20;0.62;;;;;;;6.78;49.90;98467.06;4451500;32;20557;-71
2022/01/30 11:58:33;;;;;;;0.80;0.40;;;;;;;6.71;49.17;98425.09;4451355;32;20513;-71
2022/01/30 12:01:15;;;;;;;3.78;0.90;;;;;;;6.83;49.78;98416.28;4451476;32;20128;-71
2022/01/30 12:03:59;;;;;;;0.60;0.35;;;;;;;6.78;49.54;98397.59;4471610;31;20158;-71
2022/01/30 12:06:29;;;;;;;11.07;0.73;;;;;;;6.73;48.89;98412.75;4516688;31;20071;-71
2022/01/30 12:08:59;;;;;;;0.93;0.55;;;;;;;6.80;48.90;98436.53;4516931;31;20091;-72
2022/01/30 12:11:39;;;;;;;1.50;0.50;;;;;;;6.89;47.62;98388.94;4516489;31;20091;-72
2022/01/30 12:14:30;;;;;;;1.75;0.60;;;;;;;6.82;48.00;98393.00;4517061;31;20110;-71
2022/01/30 12:17:02;;;;;;;3.37;0.90;;;;;;;6.98;48.37;98389.97;4506396;31;20166;-71
2022/01/30 12:19:44;;;;;;;3.80;0.80;;;;;;;7.14;48.18;98395.59;4516872;31;20460;-71
2022/01/30 12:22:17;;;;;;;2.92;0.82;;;;;;;6.88;46.14;98354.25;4516852;31;20503;-71
2022/01/30 12:24:50;;;;;;;1.23;0.60;;;;;;;6.87;46.57;98402.09;4516750;31;20106;-71
2022/01/30 12:27:17;;;;;;;7.93;1.05;;;;;;;6.87;46.67;98399.50;4516473;31;20079;-71
2022/01/30 12:29:46;;;;;;;11.12;1.00;;;;;;;6.86;47.61;98442.09;4516548;31;20143;-71
2022/01/30 12:32:20;;;;;;;2.65;1.02;;;;;;;6.61;48.02;98404.12;4516274;31;20164;-71
2022/01/30 12:34:56;;;;;;;3.67;0.60;;;;;;;6.68;47.31;98426.16;4503273;31;20100;-71
2022/01/30 12:37:24;;;;;;;8.27;1.00;;;;;;;6.35;49.80;98427.00;4500386;31;20088;-71
2022/01/30 12:39:54;;;;;;;4.45;1.00;;;;;;;6.50;49.39;98422.38;4500507;31;20155;-71
2022/01/30 12:42:24;;;;;;;0.85;0.32;;;;;;;6.69;48.99;98408.75;4500370;31;20100;-71
2022/01/30 12:44:51;;;;;;;6.62;1.08;;;;;;;6.71;48.77;98425.09;4500559;31;20497;-71
2022/01/30 12:47:18;;;;;;;3.33;0.60;;;;;;;6.53;49.26;98396.12;4500252;31;20099;-71